sensor_id;sensor_type;location;lat;lon;timestamp;P1;durP1;ratioP1;P2;durP2;ratioP2
63050;SDS011;49136;47.416;19.402;2022-07-23T00:00:45;9.45;;;6.05;;
63050;SDS011;49136;47.416;19.402;2022-07-23T00:03:12;15.52;;;6.00;;
63050;SDS011;49136;47.416;19.402;2022-07-23T00:05:38;9.50;;;5.45;;
63050;SDS011;49136;47.416;19.402;2022-07-23T00:08:04;11.98;;;6.40;;
63050;SDS011;49136;47.416;19.402;2022-07-23T00:10:30;14.55;;;6.22;;
63050;SDS011;49136;47.416;19.402;2022-07-23T00:12:56;9.00;;;6.25;;
63050;SDS011;49136;47.416;19.402;2022-07-23T00:15:21;19.02;;;5.80;;
63050;SDS011;49136;47.416;19.402;2022-07-23T00:17:47;14.20;;;6.03;;
63050;SDS011;49136;47.416;19.402;2022-07-23T00:20:12;10.13;;;6.55;;
63050;SDS011;49136;47.416;19.402;2022-07-23T00:22:47;15.15;;;6.35;;
63050;SDS011;49136;47.416;19.402;2022-07-23T00:25:17;10.70;;;6.97;;
63050;SDS011;49136;47.416;19.402;2022-07-23T00:27:42;12.05;;;6.03;;
63050;SDS011;49136;47.416;19.402;2022-07-23T00:30:08;14.98;;;7.25;;
63050;SDS011;49136;47.416;19.402;2022-07-23T00:32:53;12.77;;;6.57;;
63050;SDS011;49136;47.416;19.402;2022-07-23T00:35:24;17.77;;;6.30;;
63050;SDS011;49136;47.416;19.402;2022-07-23T00:37:50;9.95;;;6.13;;
63050;SDS011;49136;47.416;19.402;2022-07-23T00:40:16;16.80;;;6.88;;
63050;SDS011;49136;47.416;19.402;2022-07-23T00:42:42;13.25;;;8.10;;
63050;SDS011;49136;47.416;19.402;2022-07-23T00:45:08;8.95;;;5.90;;
63050;SDS011;49136;47.416;19.402;2022-07-23T00:47:33;18.38;;;6.78;;
63050;SDS011;49136;47.416;19.402;2022-07-23T00:49:59;13.10;;;6.65;;
63050;SDS011;49136;47.416;19.402;2022-07-23T00:52:25;11.38;;;7.00;;
63050;SDS011;49136;47.416;19.402;2022-07-23T00:54:51;9.55;;;6.43;;
63050;SDS011;49136;47.416;19.402;2022-07-23T00:57:16;14.30;;;6.47;;
63050;SDS011;49136;47.416;19.402;2022-07-23T00:59:42;11.82;;;6.20;;
63050;SDS011;49136;47.416;19.402;2022-07-23T01:02:08;11.07;;;6.30;;
63050;SDS011;49136;47.416;19.402;2022-07-23T01:04:33;15.20;;;6.05;;
63050;SDS011;49136;47.416;19.402;2022-07-23T01:06:59;15.75;;;6.30;;
63050;SDS011;49136;47.416;19.402;2022-07-23T01:09:25;7.85;;;6.13;;
63050;SDS011;49136;47.416;19.402;2022-07-23T01:11:51;15.63;;;5.68;;
63050;SDS011;49136;47.416;19.402;2022-07-23T01:14:18;8.15;;;5.38;;
63050;SDS011;49136;47.416;19.402;2022-07-23T01:16:44;10.10;;;6.15;;
63050;SDS011;49136;47.416;19.402;2022-07-23T01:19:11;10.82;;;5.75;;
63050;SDS011;49136;47.416;19.402;2022-07-23T01:21:38;12.07;;;6.32;;
63050;SDS011;49136;47.416;19.402;2022-07-23T01:24:05;15.00;;;6.10;;
63050;SDS011;49136;47.416;19.402;2022-07-23T01:26:31;10.18;;;5.97;;
63050;SDS011;49136;47.416;19.402;2022-07-23T01:28:56;12.05;;;6.13;;
63050;SDS011;49136;47.416;19.402;2022-07-23T01:31:21;13.23;;;6.10;;
63050;SDS011;49136;47.416;19.402;2022-07-23T01:33:47;11.32;;;6.28;;
63050;SDS011;49136;47.416;19.402;2022-07-23T01:36:13;12.65;;;6.13;;
63050;SDS011;49136;47.416;19.402;2022-07-23T01:38:38;8.98;;;6.50;;
63050;SDS011;49136;47.416;19.402;2022-07-23T01:41:04;8.90;;;5.63;;
63050;SDS011;49136;47.416;19.402;2022-07-23T01:43:29;13.95;;;6.53;;
63050;SDS011;49136;47.416;19.402;2022-07-23T01:45:55;12.00;;;6.50;;
63050;SDS011;49136;47.416;19.402;2022-07-23T01:48:20;14.77;;;6.85;;
63050;SDS011;49136;47.416;19.402;2022-07-23T01:50:46;10.63;;;5.55;;
63050;SDS011;49136;47.416;19.402;2022-07-23T01:53:13;10.15;;;6.07;;
63050;SDS011;49136;47.416;19.402;2022-07-23T01:55:39;9.85;;;6.28;;
63050;SDS011;49136;47.416;19.402;2022-07-23T01:58:04;15.35;;;6.50;;
63050;SDS011;49136;47.416;19.402;2022-07-23T02:00:30;12.63;;;6.78;;
63050;SDS011;49136;47.416;19.402;2022-07-23T02:02:56;9.35;;;5.97;;
63050;SDS011;49136;47.416;19.402;2022-07-23T02:05:23;13.93;;;5.80;;
63050;SDS011;49136;47.416;19.402;2022-07-23T02:07:49;10.02;;;5.82;;
63050;SDS011;49136;47.416;19.402;2022-07-23T02:10:15;10.35;;;6.22;;
63050;SDS011;49136;47.416;19.402;2022-07-23T02:12:41;10.43;;;6.40;;
63050;SDS011;49136;47.416;19.402;2022-07-23T02:15:06;13.98;;;6.68;;
63050;SDS011;49136;47.416;19.402;2022-07-23T02:17:32;12.13;;;6.45;;
63050;SDS011;49136;47.416;19.402;2022-07-23T02:19:58;10.10;;;6.65;;
63050;SDS011;49136;47.416;19.402;2022-07-23T02:22:23;14.55;;;6.28;;
63050;SDS011;49136;47.416;19.402;2022-07-23T02:24:48;13.75;;;7.13;;
63050;SDS011;49136;47.416;19.402;2022-07-23T02:27:14;9.00;;;6.40;;
63050;SDS011;49136;47.416;19.402;2022-07-23T02:29:39;10.10;;;6.45;;
63050;SDS011;49136;47.416;19.402;2022-07-23T02:32:05;14.15;;;6.55;;
63050;SDS011;49136;47.416;19.402;2022-07-23T02:34:30;14.73;;;7.50;;
63050;SDS011;49136;47.416;19.402;2022-07-23T02:36:55;10.43;;;6.25;;
63050;SDS011;49136;47.416;19.402;2022-07-23T02:39:21;12.30;;;6.43;;
63050;SDS011;49136;47.416;19.402;2022-07-23T02:41:46;11.90;;;6.28;;
63050;SDS011;49136;47.416;19.402;2022-07-23T02:44:11;12.80;;;7.03;;
63050;SDS011;49136;47.416;19.402;2022-07-23T02:46:37;10.38;;;6.13;;
63050;SDS011;49136;47.416;19.402;2022-07-23T02:49:02;14.95;;;6.10;;
63050;SDS011;49136;47.416;19.402;2022-07-23T02:51:29;10.65;;;6.43;;
63050;SDS011;49136;47.416;19.402;2022-07-23T02:53:55;10.98;;;5.90;;
63050;SDS011;49136;47.416;19.402;2022-07-23T02:56:20;12.77;;;6.93;;
63050;SDS011;49136;47.416;19.402;2022-07-23T02:58:46;13.35;;;6.63;;
63050;SDS011;49136;47.416;19.402;2022-07-23T03:01:11;13.45;;;6.63;;
63050;SDS011;49136;47.416;19.402;2022-07-23T03:03:37;20.95;;;7.38;;
63050;SDS011;49136;47.416;19.402;2022-07-23T03:06:02;20.52;;;7.80;;
63050;SDS011;49136;47.416;19.402;2022-07-23T03:08:28;9.38;;;6.50;;
63050;SDS011;49136;47.416;19.402;2022-07-23T03:10:53;12.40;;;6.15;;
63050;SDS011;49136;47.416;19.402;2022-07-23T03:13:19;11.85;;;5.88;;
63050;SDS011;49136;47.416;19.402;2022-07-23T03:15:44;12.50;;;6.78;;
63050;SDS011;49136;47.416;19.402;2022-07-23T03:18:09;13.88;;;5.90;;
63050;SDS011;49136;47.416;19.402;2022-07-23T03:20:35;14.60;;;6.22;;
63050;SDS011;49136;47.416;19.402;2022-07-23T03:23:00;12.48;;;6.75;;
63050;SDS011;49136;47.416;19.402;2022-07-23T03:25:26;10.80;;;6.13;;
63050;SDS011;49136;47.416;19.402;2022-07-23T03:27:51;12.40;;;6.43;;
63050;SDS011;49136;47.416;19.402;2022-07-23T03:30:17;13.25;;;6.50;;
63050;SDS011;49136;47.416;19.402;2022-07-23T03:32:42;12.35;;;6.65;;
63050;SDS011;49136;47.416;19.402;2022-07-23T03:35:08;10.20;;;5.38;;
63050;SDS011;49136;47.416;19.402;2022-07-23T03:37:33;9.20;;;5.97;;
63050;SDS011;49136;47.416;19.402;2022-07-23T03:39:59;16.88;;;6.20;;
63050;SDS011;49136;47.416;19.402;2022-07-23T03:42:24;8.85;;;6.05;;
63050;SDS011;49136;47.416;19.402;2022-07-23T03:44:50;13.55;;;6.57;;
63050;SDS011;49136;47.416;19.402;2022-07-23T03:47:15;18.08;;;6.60;;
63050;SDS011;49136;47.416;19.402;2022-07-23T03:49:42;14.07;;;6.03;;
63050;SDS011;49136;47.416;19.402;2022-07-23T03:52:07;10.85;;;5.82;;
63050;SDS011;49136;47.416;19.402;2022-07-23T03:54:33;14.82;;;5.38;;
63050;SDS011;49136;47.416;19.402;2022-07-23T03:56:59;8.57;;;5.72;;
63050;SDS011;49136;47.416;19.402;2022-07-23T03:59:24;13.07;;;6.65;;
63050;SDS011;49136;47.416;19.402;2022-07-23T04:01:50;8.68;;;5.95;;
63050;SDS011;49136;47.416;19.402;2022-07-23T04:04:15;12.45;;;6.05;;
63050;SDS011;49136;47.416;19.402;2022-07-23T04:06:41;10.40;;;5.70;;
63050;SDS011;49136;47.416;19.402;2022-07-23T04:09:06;10.85;;;5.78;;
63050;SDS011;49136;47.416;19.402;2022-07-23T04:11:31;12.00;;;6.18;;
63050;SDS011;49136;47.416;19.402;2022-07-23T04:13:57;10.13;;;5.65;;
63050;SDS011;49136;47.416;19.402;2022-07-23T04:16:23;11.65;;;6.25;;
63050;SDS011;49136;47.416;19.402;2022-07-23T04:18:48;20.67;;;5.55;;
63050;SDS011;49136;47.416;19.402;2022-07-23T04:21:14;15.57;;;6.95;;
63050;SDS011;49136;47.416;19.402;2022-07-23T04:23:39;15.68;;;6.22;;
63050;SDS011;49136;47.416;19.402;2022-07-23T04:26:05;12.77;;;6.40;;
63050;SDS011;49136;47.416;19.402;2022-07-23T04:28:30;8.48;;;5.88;;
63050;SDS011;49136;47.416;19.402;2022-07-23T04:30:56;11.50;;;5.80;;
63050;SDS011;49136;47.416;19.402;2022-07-23T04:33:22;15.80;;;6.32;;
63050;SDS011;49136;47.416;19.402;2022-07-23T04:35:48;12.70;;;5.97;;
63050;SDS011;49136;47.416;19.402;2022-07-23T04:38:13;14.88;;;6.18;;
63050;SDS011;49136;47.416;19.402;2022-07-23T04:40:38;13.73;;;5.88;;
63050;SDS011;49136;47.416;19.402;2022-07-23T04:43:04;13.48;;;5.75;;
63050;SDS011;49136;47.416;19.402;2022-07-23T04:45:30;10.23;;;6.20;;
63050;SDS011;49136;47.416;19.402;2022-07-23T04:47:55;8.25;;;5.38;;
63050;SDS011;49136;47.416;19.402;2022-07-23T04:50:21;12.57;;;5.63;;
63050;SDS011;49136;47.416;19.402;2022-07-23T04:52:47;17.33;;;6.13;;
63050;SDS011;49136;47.416;19.402;2022-07-23T04:55:13;11.52;;;7.03;;
63050;SDS011;49136;47.416;19.402;2022-07-23T04:57:39;15.27;;;6.22;;
63050;SDS011;49136;47.416;19.402;2022-07-23T05:00:05;10.00;;;5.88;;
63050;SDS011;49136;47.416;19.402;2022-07-23T05:02:31;11.15;;;6.03;;
63050;SDS011;49136;47.416;19.402;2022-07-23T05:04:57;9.23;;;5.43;;
63050;SDS011;49136;47.416;19.402;2022-07-23T05:07:22;13.98;;;5.80;;
63050;SDS011;49136;47.416;19.402;2022-07-23T05:09:48;11.27;;;5.57;;
63050;SDS011;49136;47.416;19.402;2022-07-23T05:12:13;22.67;;;7.35;;
63050;SDS011;49136;47.416;19.402;2022-07-23T05:14:38;12.90;;;5.90;;
63050;SDS011;49136;47.416;19.402;2022-07-23T05:17:04;14.18;;;6.47;;
63050;SDS011;49136;47.416;19.402;2022-07-23T05:19:30;15.23;;;5.75;;
63050;SDS011;49136;47.416;19.402;2022-07-23T05:21:55;17.88;;;6.38;;
63050;SDS011;49136;47.416;19.402;2022-07-23T05:24:21;16.48;;;6.10;;
63050;SDS011;49136;47.416;19.402;2022-07-23T05:26:46;12.82;;;5.50;;
63050;SDS011;49136;47.416;19.402;2022-07-23T05:29:11;9.40;;;5.50;;
63050;SDS011;49136;47.416;19.402;2022-07-23T05:31:37;12.75;;;5.32;;
63050;SDS011;49136;47.416;19.402;2022-07-23T05:34:02;15.10;;;6.20;;
63050;SDS011;49136;47.416;19.402;2022-07-23T05:36:28;10.48;;;5.45;;
63050;SDS011;49136;47.416;19.402;2022-07-23T05:38:53;11.55;;;5.55;;
63050;SDS011;49136;47.416;19.402;2022-07-23T05:41:18;8.77;;;5.32;;
63050;SDS011;49136;47.416;19.402;2022-07-23T05:43:44;9.18;;;4.93;;
63050;SDS011;49136;47.416;19.402;2022-07-23T05:46:09;21.30;;;5.60;;
63050;SDS011;49136;47.416;19.402;2022-07-23T05:48:35;13.07;;;5.63;;
63050;SDS011;49136;47.416;19.402;2022-07-23T05:51:00;15.30;;;5.57;;
63050;SDS011;49136;47.416;19.402;2022-07-23T05:53:26;8.98;;;5.18;;
63050;SDS011;49136;47.416;19.402;2022-07-23T05:55:51;10.27;;;5.13;;
63050;SDS011;49136;47.416;19.402;2022-07-23T05:58:17;13.27;;;6.43;;
63050;SDS011;49136;47.416;19.402;2022-07-23T06:00:42;13.40;;;6.07;;
63050;SDS011;49136;47.416;19.402;2022-07-23T06:03:07;10.23;;;4.70;;
63050;SDS011;49136;47.416;19.402;2022-07-23T06:05:33;8.73;;;5.50;;
63050;SDS011;49136;47.416;19.402;2022-07-23T06:07:58;11.73;;;4.68;;
63050;SDS011;49136;47.416;19.402;2022-07-23T06:10:24;9.70;;;5.45;;
63050;SDS011;49136;47.416;19.402;2022-07-23T06:12:49;9.50;;;5.72;;
63050;SDS011;49136;47.416;19.402;2022-07-23T06:15:15;11.98;;;5.57;;
63050;SDS011;49136;47.416;19.402;2022-07-23T06:17:40;19.67;;;5.65;;
63050;SDS011;49136;47.416;19.402;2022-07-23T06:20:06;9.65;;;5.10;;
63050;SDS011;49136;47.416;19.402;2022-07-23T06:22:33;10.60;;;5.32;;
63050;SDS011;49136;47.416;19.402;2022-07-23T06:24:59;13.52;;;5.10;;
63050;SDS011;49136;47.416;19.402;2022-07-23T06:27:24;11.68;;;5.47;;
63050;SDS011;49136;47.416;19.402;2022-07-23T06:29:50;8.32;;;5.00;;
63050;SDS011;49136;47.416;19.402;2022-07-23T06:32:15;20.13;;;5.43;;
63050;SDS011;49136;47.416;19.402;2022-07-23T06:34:40;15.38;;;5.18;;
63050;SDS011;49136;47.416;19.402;2022-07-23T06:37:06;9.88;;;5.47;;
63050;SDS011;49136;47.416;19.402;2022-07-23T06:39:31;13.77;;;6.00;;
63050;SDS011;49136;47.416;19.402;2022-07-23T06:41:57;16.70;;;5.70;;
63050;SDS011;49136;47.416;19.402;2022-07-23T06:44:22;11.07;;;5.22;;
63050;SDS011;49136;47.416;19.402;2022-07-23T06:46:48;10.40;;;5.20;;
63050;SDS011;49136;47.416;19.402;2022-07-23T06:49:13;13.00;;;5.65;;
63050;SDS011;49136;47.416;19.402;2022-07-23T06:51:38;17.25;;;6.35;;
63050;SDS011;49136;47.416;19.402;2022-07-23T06:54:04;8.18;;;5.07;;
63050;SDS011;49136;47.416;19.402;2022-07-23T06:56:29;10.00;;;5.38;;
63050;SDS011;49136;47.416;19.402;2022-07-23T06:58:55;9.63;;;5.00;;
63050;SDS011;49136;47.416;19.402;2022-07-23T07:01:20;11.77;;;6.07;;
63050;SDS011;49136;47.416;19.402;2022-07-23T07:03:46;12.80;;;6.00;;
63050;SDS011;49136;47.416;19.402;2022-07-23T07:06:12;28.27;;;5.95;;
63050;SDS011;49136;47.416;19.402;2022-07-23T07:08:37;7.70;;;5.15;;
63050;SDS011;49136;47.416;19.402;2022-07-23T07:11:03;13.07;;;5.65;;
63050;SDS011;49136;47.416;19.402;2022-07-23T07:13:28;9.60;;;4.78;;
63050;SDS011;49136;47.416;19.402;2022-07-23T07:15:54;14.07;;;5.57;;
63050;SDS011;49136;47.416;19.402;2022-07-23T07:18:19;14.07;;;5.20;;
63050;SDS011;49136;47.416;19.402;2022-07-23T07:20:46;13.40;;;5.65;;
63050;SDS011;49136;47.416;19.402;2022-07-23T07:23:12;14.60;;;5.68;;
63050;SDS011;49136;47.416;19.402;2022-07-23T07:25:37;17.02;;;5.85;;
63050;SDS011;49136;47.416;19.402;2022-07-23T07:28:02;12.45;;;5.57;;
63050;SDS011;49136;47.416;19.402;2022-07-23T07:30:28;15.02;;;5.35;;
63050;SDS011;49136;47.416;19.402;2022-07-23T07:32:53;11.13;;;5.15;;
63050;SDS011;49136;47.416;19.402;2022-07-23T07:35:19;14.20;;;5.82;;
63050;SDS011;49136;47.416;19.402;2022-07-23T07:37:44;10.90;;;5.95;;
63050;SDS011;49136;47.416;19.402;2022-07-23T07:40:10;17.20;;;5.60;;
63050;SDS011;49136;47.416;19.402;2022-07-23T07:42:43;10.70;;;5.20;;
63050;SDS011;49136;47.416;19.402;2022-07-23T07:45:12;9.00;;;5.25;;
63050;SDS011;49136;47.416;19.402;2022-07-23T07:47:37;11.65;;;5.40;;
63050;SDS011;49136;47.416;19.402;2022-07-23T07:50:03;10.07;;;5.22;;
63050;SDS011;49136;47.416;19.402;2022-07-23T07:52:28;9.93;;;5.28;;
63050;SDS011;49136;47.416;19.402;2022-07-23T07:54:54;15.40;;;5.97;;
63050;SDS011;49136;47.416;19.402;2022-07-23T07:57:19;14.75;;;6.18;;
63050;SDS011;49136;47.416;19.402;2022-07-23T07:59:45;9.00;;;5.30;;
63050;SDS011;49136;47.416;19.402;2022-07-23T08:02:10;11.90;;;4.85;;
63050;SDS011;49136;47.416;19.402;2022-07-23T08:04:35;10.00;;;5.57;;
63050;SDS011;49136;47.416;19.402;2022-07-23T08:07:01;14.75;;;5.75;;
63050;SDS011;49136;47.416;19.402;2022-07-23T08:09:26;12.90;;;5.50;;
63050;SDS011;49136;47.416;19.402;2022-07-23T08:11:51;10.40;;;5.40;;
63050;SDS011;49136;47.416;19.402;2022-07-23T08:14:18;12.55;;;5.72;;
63050;SDS011;49136;47.416;19.402;2022-07-23T08:16:43;11.68;;;5.35;;
63050;SDS011;49136;47.416;19.402;2022-07-23T08:19:09;9.68;;;5.18;;
63050;SDS011;49136;47.416;19.402;2022-07-23T08:21:34;7.60;;;4.60;;
63050;SDS011;49136;47.416;19.402;2022-07-23T08:23:59;9.32;;;4.90;;
63050;SDS011;49136;47.416;19.402;2022-07-23T08:26:25;12.82;;;5.03;;
63050;SDS011;49136;47.416;19.402;2022-07-23T08:28:50;9.15;;;5.40;;
63050;SDS011;49136;47.416;19.402;2022-07-23T08:31:15;9.95;;;5.20;;
63050;SDS011;49136;47.416;19.402;2022-07-23T08:33:42;11.55;;;5.13;;
63050;SDS011;49136;47.416;19.402;2022-07-23T08:36:08;10.45;;;5.65;;
63050;SDS011;49136;47.416;19.402;2022-07-23T08:38:34;12.80;;;5.03;;
63050;SDS011;49136;47.416;19.402;2022-07-23T08:41:00;9.27;;;4.78;;
63050;SDS011;49136;47.416;19.402;2022-07-23T08:43:27;7.72;;;5.40;;
63050;SDS011;49136;47.416;19.402;2022-07-23T08:45:55;7.63;;;4.90;;
63050;SDS011;49136;47.416;19.402;2022-07-23T08:48:23;12.43;;;4.65;;
63050;SDS011;49136;47.416;19.402;2022-07-23T08:50:51;6.90;;;5.75;;
63050;SDS011;49136;47.416;19.402;2022-07-23T08:53:19;18.35;;;5.90;;
63050;SDS011;49136;47.416;19.402;2022-07-23T08:55:47;10.98;;;6.13;;
63050;SDS011;49136;47.416;19.402;2022-07-23T08:58:13;6.63;;;5.20;;
63050;SDS011;49136;47.416;19.402;2022-07-23T09:00:39;6.68;;;4.80;;
63050;SDS011;49136;47.416;19.402;2022-07-23T09:03:05;8.82;;;4.72;;
63050;SDS011;49136;47.416;19.402;2022-07-23T09:05:31;16.88;;;6.13;;
63050;SDS011;49136;47.416;19.402;2022-07-23T09:10:48;6.85;;;4.93;;
63050;SDS011;49136;47.416;19.402;2022-07-23T09:19:09;12.20;;;5.70;;
63050;SDS011;49136;47.416;19.402;2022-07-23T09:21:37;11.30;;;5.68;;
63050;SDS011;49136;47.416;19.402;2022-07-23T09:24:11;15.80;;;4.97;;
63050;SDS011;49136;47.416;19.402;2022-07-23T09:29:05;7.40;;;5.05;;
63050;SDS011;49136;47.416;19.402;2022-07-23T09:31:47;8.00;;;5.13;;
63050;SDS011;49136;47.416;19.402;2022-07-23T09:36:49;10.20;;;5.32;;
63050;SDS011;49136;47.416;19.402;2022-07-23T09:39:32;7.85;;;5.10;;
63050;SDS011;49136;47.416;19.402;2022-07-23T09:41:59;8.73;;;5.60;;
63050;SDS011;49136;47.416;19.402;2022-07-23T09:44:42;12.82;;;5.30;;
63050;SDS011;49136;47.416;19.402;2022-07-23T09:47:15;9.57;;;5.72;;
63050;SDS011;49136;47.416;19.402;2022-07-23T09:50:01;9.63;;;5.32;;
63050;SDS011;49136;47.416;19.402;2022-07-23T09:52:33;9.80;;;5.10;;
63050;SDS011;49136;47.416;19.402;2022-07-23T09:55:12;10.57;;;5.28;;
63050;SDS011;49136;47.416;19.402;2022-07-23T09:57:40;8.15;;;4.95;;
63050;SDS011;49136;47.416;19.402;2022-07-23T10:00:07;12.85;;;5.53;;
63050;SDS011;49136;47.416;19.402;2022-07-23T10:02:36;11.27;;;5.63;;
63050;SDS011;49136;47.416;19.402;2022-07-23T10:05:02;12.40;;;5.80;;
63050;SDS011;49136;47.416;19.402;2022-07-23T10:07:30;7.13;;;4.80;;
63050;SDS011;49136;47.416;19.402;2022-07-23T10:09:58;13.18;;;5.97;;
63050;SDS011;49136;47.416;19.402;2022-07-23T10:12:25;6.60;;;5.30;;
63050;SDS011;49136;47.416;19.402;2022-07-23T10:14:54;6.13;;;5.53;;
63050;SDS011;49136;47.416;19.402;2022-07-23T10:17:21;7.82;;;5.63;;
63050;SDS011;49136;47.416;19.402;2022-07-23T10:19:47;8.38;;;5.32;;
63050;SDS011;49136;47.416;19.402;2022-07-23T10:22:19;6.55;;;4.93;;
63050;SDS011;49136;47.416;19.402;2022-07-23T10:24:50;7.22;;;5.15;;
63050;SDS011;49136;47.416;19.402;2022-07-23T10:30:22;6.47;;;5.18;;
63050;SDS011;49136;47.416;19.402;2022-07-23T10:38:29;10.77;;;5.05;;
63050;SDS011;49136;47.416;19.402;2022-07-23T10:41:00;12.40;;;5.15;;
63050;SDS011;49136;47.416;19.402;2022-07-23T10:43:28;8.88;;;5.40;;
63050;SDS011;49136;47.416;19.402;2022-07-23T10:45:54;11.82;;;5.28;;
63050;SDS011;49136;47.416;19.402;2022-07-23T10:48:25;8.20;;;4.72;;
63050;SDS011;49136;47.416;19.402;2022-07-23T10:51:10;7.80;;;5.50;;
63050;SDS011;49136;47.416;19.402;2022-07-23T10:56:14;7.38;;;5.47;;
63050;SDS011;49136;47.416;19.402;2022-07-23T10:58:47;13.68;;;5.70;;
63050;SDS011;49136;47.416;19.402;2022-07-23T11:01:36;6.65;;;5.35;;
63050;SDS011;49136;47.416;19.402;2022-07-23T11:04:03;6.15;;;5.32;;
63050;SDS011;49136;47.416;19.402;2022-07-23T11:09:47;6.95;;;5.20;;
63050;SDS011;49136;47.416;19.402;2022-07-23T11:17:37;12.60;;;5.65;;
63050;SDS011;49136;47.416;19.402;2022-07-23T11:22:39;12.00;;;5.22;;
63050;SDS011;49136;47.416;19.402;2022-07-23T11:27:48;10.80;;;5.70;;
63050;SDS011;49136;47.416;19.402;2022-07-23T11:33:38;11.45;;;6.55;;
63050;SDS011;49136;47.416;19.402;2022-07-23T11:35:39;8.60;;;6.00;;
63050;SDS011;49136;47.416;19.402;2022-07-23T11:40:48;15.60;;;5.80;;
63050;SDS011;49136;47.416;19.402;2022-07-23T11:43:15;10.93;;;6.57;;
63050;SDS011;49136;47.416;19.402;2022-07-23T11:48:09;7.82;;;6.88;;
63050;SDS011;49136;47.416;19.402;2022-07-23T11:50:42;15.18;;;6.07;;
63050;SDS011;49136;47.416;19.402;2022-07-23T11:53:07;7.50;;;6.45;;
63050;SDS011;49136;47.416;19.402;2022-07-23T11:55:33;8.32;;;6.50;;
63050;SDS011;49136;47.416;19.402;2022-07-23T11:57:59;10.70;;;6.90;;
63050;SDS011;49136;47.416;19.402;2022-07-23T12:00:25;7.72;;;6.28;;
63050;SDS011;49136;47.416;19.402;2022-07-23T12:02:54;11.20;;;6.55;;
63050;SDS011;49136;47.416;19.402;2022-07-23T12:05:28;10.00;;;6.30;;
63050;SDS011;49136;47.416;19.402;2022-07-23T12:07:58;10.52;;;6.65;;
63050;SDS011;49136;47.416;19.402;2022-07-23T12:10:25;9.40;;;6.63;;
63050;SDS011;49136;47.416;19.402;2022-07-23T12:12:59;12.32;;;6.80;;
63050;SDS011;49136;47.416;19.402;2022-07-23T12:15:37;9.05;;;6.18;;
63050;SDS011;49136;47.416;19.402;2022-07-23T12:18:05;9.25;;;6.80;;
63050;SDS011;49136;47.416;19.402;2022-07-23T12:20:33;9.88;;;6.80;;
63050;SDS011;49136;47.416;19.402;2022-07-23T12:23:03;10.13;;;6.80;;
63050;SDS011;49136;47.416;19.402;2022-07-23T12:25:31;11.93;;;7.22;;
63050;SDS011;49136;47.416;19.402;2022-07-23T12:28:07;16.33;;;7.30;;
63050;SDS011;49136;47.416;19.402;2022-07-23T12:30:37;10.23;;;6.93;;
63050;SDS011;49136;47.416;19.402;2022-07-23T12:33:08;11.65;;;7.72;;
63050;SDS011;49136;47.416;19.402;2022-07-23T12:35:36;12.95;;;7.47;;
63050;SDS011;49136;47.416;19.402;2022-07-23T12:38:10;19.75;;;7.82;;
63050;SDS011;49136;47.416;19.402;2022-07-23T12:40:56;13.55;;;7.85;;
63050;SDS011;49136;47.416;19.402;2022-07-23T12:43:33;15.38;;;7.82;;
63050;SDS011;49136;47.416;19.402;2022-07-23T12:51:15;11.15;;;6.43;;
63050;SDS011;49136;47.416;19.402;2022-07-23T12:56:14;10.75;;;6.78;;
63050;SDS011;49136;47.416;19.402;2022-07-23T13:01:33;9.25;;;7.53;;
63050;SDS011;49136;47.416;19.402;2022-07-23T13:04:04;10.70;;;7.30;;
63050;SDS011;49136;47.416;19.402;2022-07-23T13:06:51;9.55;;;6.90;;
63050;SDS011;49136;47.416;19.402;2022-07-23T13:09:20;11.77;;;6.50;;
63050;SDS011;49136;47.416;19.402;2022-07-23T13:11:48;11.35;;;6.95;;
63050;SDS011;49136;47.416;19.402;2022-07-23T13:14:14;9.45;;;7.10;;
63050;SDS011;49136;47.416;19.402;2022-07-23T13:16:41;23.85;;;7.47;;
63050;SDS011;49136;47.416;19.402;2022-07-23T13:19:07;16.05;;;6.60;;
63050;SDS011;49136;47.416;19.402;2022-07-23T13:21:33;13.50;;;6.93;;
63050;SDS011;49136;47.416;19.402;2022-07-23T13:23:58;9.38;;;6.05;;
63050;SDS011;49136;47.416;19.402;2022-07-23T13:26:24;9.75;;;7.00;;
63050;SDS011;49136;47.416;19.402;2022-07-23T13:28:50;9.00;;;6.13;;
63050;SDS011;49136;47.416;19.402;2022-07-23T13:31:16;10.15;;;5.97;;
63050;SDS011;49136;47.416;19.402;2022-07-23T13:33:42;9.15;;;5.53;;
63050;SDS011;49136;47.416;19.402;2022-07-23T13:36:07;8.52;;;5.63;;
63050;SDS011;49136;47.416;19.402;2022-07-23T13:38:33;7.38;;;6.22;;
63050;SDS011;49136;47.416;19.402;2022-07-23T13:40:59;9.40;;;5.75;;
63050;SDS011;49136;47.416;19.402;2022-07-23T13:43:25;7.22;;;5.97;;
63050;SDS011;49136;47.416;19.402;2022-07-23T13:45:51;6.88;;;5.55;;
63050;SDS011;49136;47.416;19.402;2022-07-23T13:48:17;7.47;;;5.85;;
63050;SDS011;49136;47.416;19.402;2022-07-23T13:50:44;36.45;;;6.63;;
63050;SDS011;49136;47.416;19.402;2022-07-23T13:53:13;10.48;;;5.63;;
63050;SDS011;49136;47.416;19.402;2022-07-23T13:55:40;7.57;;;5.97;;
63050;SDS011;49136;47.416;19.402;2022-07-23T13:58:07;10.57;;;6.15;;
63050;SDS011;49136;47.416;19.402;2022-07-23T14:00:33;13.35;;;6.30;;
63050;SDS011;49136;47.416;19.402;2022-07-23T14:03:00;8.65;;;5.88;;
63050;SDS011;49136;47.416;19.402;2022-07-23T14:05:26;11.77;;;6.90;;
63050;SDS011;49136;47.416;19.402;2022-07-23T14:07:52;9.27;;;6.40;;
63050;SDS011;49136;47.416;19.402;2022-07-23T14:10:18;10.30;;;6.47;;
63050;SDS011;49136;47.416;19.402;2022-07-23T14:12:45;7.97;;;5.85;;
63050;SDS011;49136;47.416;19.402;2022-07-23T14:15:12;8.05;;;7.15;;
63050;SDS011;49136;47.416;19.402;2022-07-23T14:17:38;6.95;;;5.65;;
63050;SDS011;49136;47.416;19.402;2022-07-23T14:20:05;7.13;;;6.43;;
63050;SDS011;49136;47.416;19.402;2022-07-23T14:22:31;7.20;;;6.35;;
63050;SDS011;49136;47.416;19.402;2022-07-23T14:24:57;11.40;;;6.32;;
63050;SDS011;49136;47.416;19.402;2022-07-23T14:27:23;8.82;;;6.18;;
63050;SDS011;49136;47.416;19.402;2022-07-23T14:29:50;7.13;;;6.07;;
63050;SDS011;49136;47.416;19.402;2022-07-23T14:32:15;9.50;;;6.30;;
63050;SDS011;49136;47.416;19.402;2022-07-23T14:34:41;9.40;;;6.28;;
63050;SDS011;49136;47.416;19.402;2022-07-23T14:37:06;7.50;;;5.82;;
63050;SDS011;49136;47.416;19.402;2022-07-23T14:39:32;7.75;;;6.32;;
63050;SDS011;49136;47.416;19.402;2022-07-23T14:41:57;16.33;;;6.78;;
63050;SDS011;49136;47.416;19.402;2022-07-23T14:44:23;13.63;;;7.18;;
63050;SDS011;49136;47.416;19.402;2022-07-23T14:46:48;15.35;;;6.63;;
63050;SDS011;49136;47.416;19.402;2022-07-23T14:49:14;9.93;;;6.60;;
63050;SDS011;49136;47.416;19.402;2022-07-23T14:51:40;10.07;;;6.65;;
63050;SDS011;49136;47.416;19.402;2022-07-23T14:54:07;15.18;;;6.80;;
63050;SDS011;49136;47.416;19.402;2022-07-23T14:56:33;10.43;;;6.20;;
63050;SDS011;49136;47.416;19.402;2022-07-23T14:58:58;8.80;;;6.80;;
63050;SDS011;49136;47.416;19.402;2022-07-23T15:01:24;12.27;;;6.63;;
63050;SDS011;49136;47.416;19.402;2022-07-23T15:03:49;13.27;;;6.40;;
63050;SDS011;49136;47.416;19.402;2022-07-23T15:06:15;13.13;;;6.82;;
63050;SDS011;49136;47.416;19.402;2022-07-23T15:08:42;9.23;;;6.25;;
63050;SDS011;49136;47.416;19.402;2022-07-23T15:11:07;13.15;;;6.40;;
63050;SDS011;49136;47.416;19.402;2022-07-23T15:13:36;7.57;;;6.13;;
63050;SDS011;49136;47.416;19.402;2022-07-23T15:16:03;8.10;;;5.93;;
63050;SDS011;49136;47.416;19.402;2022-07-23T15:18:29;11.63;;;6.00;;
63050;SDS011;49136;47.416;19.402;2022-07-23T15:20:55;10.82;;;6.88;;